createdAt,value
2022-10-27T00:04:47.993Z,1710
2022-10-27T00:10:06.818Z,1703
2022-10-27T00:15:25.023Z,1695
2022-10-27T00:20:43.783Z,1689
2022-10-27T00:26:02.300Z,1688
2022-10-27T00:31:20.481Z,1691
2022-10-27T00:36:39.298Z,1689
2022-10-27T00:41:57.673Z,1684
2022-10-27T00:47:15.856Z,1686
2022-10-27T00:52:34.345Z,1681
2022-10-27T00:57:53.185Z,1678
2022-10-27T01:03:12.464Z,1680
2022-10-27T01:08:31.255Z,1678
2022-10-27T01:13:50.033Z,1681
2022-10-27T01:19:08.234Z,1676
2022-10-27T01:24:26.722Z,1683
2022-10-27T01:29:45.520Z,1689
2022-10-27T01:35:04.003Z,1668
2022-10-27T01:40:22.198Z,1670
2022-10-27T01:45:40.434Z,1675
2022-10-27T01:51:02.315Z,1671
2022-10-27T01:56:20.607Z,1676
2022-10-27T02:01:39.090Z,1680
2022-10-27T02:06:57.562Z,1672
2022-10-27T02:12:16.340Z,1673
2022-10-27T02:17:34.834Z,1672
2022-10-27T02:22:53.221Z,1667
2022-10-27T02:28:12.568Z,1656
2022-10-27T02:33:30.794Z,1654
2022-10-27T02:38:48.965Z,1651
2022-10-27T02:44:07.468Z,1648
2022-10-27T02:49:26.283Z,1648
2022-10-27T02:54:44.733Z,1651
2022-10-27T03:00:03.519Z,1650
2022-10-27T03:05:22.318Z,1654
2022-10-27T03:10:41.058Z,1645
2022-10-27T03:15:59.815Z,1649
2022-10-27T03:21:18.076Z,1651
2022-10-27T03:26:35.974Z,1645
2022-10-27T03:31:54.446Z,1655
2022-10-27T03:37:12.695Z,1646
2022-10-27T03:42:30.860Z,1650
2022-10-27T03:47:49.347Z,1667
2022-10-27T03:53:07.585Z,1657
2022-10-27T03:58:25.500Z,1650
2022-10-27T04:03:43.997Z,1637
2022-10-27T04:09:02.905Z,1616
2022-10-27T04:14:21.672Z,1613
2022-10-27T04:19:40.283Z,1611
2022-10-27T04:24:58.493Z,1588
2022-10-27T04:30:17.242Z,1578
2022-10-27T04:35:35.477Z,1595
2022-10-27T04:40:54.278Z,992
2022-10-27T04:46:12.898Z,901
2022-10-27T04:51:31.107Z,814
2022-10-27T04:56:49.329Z,761
2022-10-27T05:02:08.113Z,717
2022-10-27T05:07:26.678Z,801
2022-10-27T05:12:45.470Z,895
2022-10-27T05:18:05.711Z,960
2022-10-27T05:23:28.541Z,996
2022-10-27T05:28:47.123Z,1008
2022-10-27T05:34:05.372Z,1020
2022-10-27T05:39:24.126Z,1029
2022-10-27T05:44:42.645Z,1032
2022-10-27T05:50:01.100Z,1036
2022-10-27T05:55:22.476Z,1038
2022-10-27T06:00:40.706Z,1037
2022-10-27T06:05:59.158Z,1035
2022-10-27T06:11:17.644Z,1045
2022-10-27T06:16:36.453Z,1078
2022-10-27T06:21:54.651Z,1128
2022-10-27T06:27:12.584Z,1147
2022-10-27T06:32:31.122Z,1153
2022-10-27T06:37:49.903Z,1153
2022-10-27T06:43:08.722Z,1147
2022-10-27T06:48:27.467Z,1147
2022-10-27T06:53:45.633Z,1146
2022-10-27T06:59:04.135Z,1151
2022-10-27T07:04:22.662Z,1152
2022-10-27T07:09:40.871Z,1149
2022-10-27T07:14:59.339Z,1153
2022-10-27T07:20:17.611Z,1160
2022-10-27T07:25:36.391Z,1158
2022-10-27T07:30:55.144Z,1158
2022-10-27T07:36:14.014Z,1161
2022-10-27T07:41:32.205Z,1163
2022-10-27T07:46:50.412Z,1165
2022-10-27T07:52:08.672Z,1165
2022-10-27T07:57:26.842Z,1162
2022-10-27T08:02:45.603Z,1167
2022-10-27T08:08:04.431Z,1164
2022-10-27T08:13:22.685Z,1164
2022-10-27T08:18:41.135Z,1162
2022-10-27T08:23:59.676Z,1160
2022-10-27T08:29:17.571Z,1155
2022-10-27T08:34:36.071Z,1159
2022-10-27T08:39:54.580Z,1167
2022-10-27T08:45:13.075Z,1167
2022-10-27T08:50:31.542Z,1169
2022-10-27T08:55:50.027Z,1169
2022-10-27T09:01:08.319Z,1176
2022-10-27T09:06:27.202Z,1170
2022-10-27T09:11:45.735Z,1176
2022-10-27T09:17:03.931Z,1175
2022-10-27T09:22:22.672Z,1178
2022-10-27T09:27:41.325Z,1177
2022-10-27T09:32:59.494Z,1172
2022-10-27T09:38:18.013Z,1173
2022-10-27T09:43:36.263Z,1167
2022-10-27T09:48:54.743Z,1166
2022-10-27T09:54:13.220Z,1172
2022-10-27T09:59:31.991Z,1167
2022-10-27T10:04:50.214Z,1165
2022-10-27T10:10:08.983Z,1161
2022-10-27T10:15:27.523Z,1158
2022-10-27T10:20:46.396Z,1156
2022-10-27T10:26:04.351Z,1148
2022-10-27T10:31:22.569Z,1137
2022-10-27T10:36:41.295Z,1132
2022-10-27T10:42:00.078Z,1125
2022-10-27T10:47:18.299Z,1115
2022-10-27T10:52:36.487Z,1111
2022-10-27T10:57:54.772Z,1102
2022-10-27T11:03:13.302Z,1099
2022-10-27T11:08:31.848Z,1095
2022-10-27T11:13:52.763Z,1090
2022-10-27T11:19:11.263Z,1091
2022-10-27T11:24:29.481Z,1090
2022-10-27T11:29:48.216Z,1095
2022-10-27T11:35:07.198Z,1093
2022-10-27T11:40:25.733Z,1078
2022-10-27T11:45:43.954Z,1066
2022-10-27T11:51:02.476Z,1058
2022-10-27T11:56:20.958Z,1051
2022-10-27T12:01:39.747Z,1047
2022-10-27T12:06:58.773Z,1040
2022-10-27T12:12:17.541Z,1026
2022-10-27T12:17:35.734Z,1037
2022-10-27T12:22:54.538Z,1057
2022-10-27T12:28:14.089Z,1063
2022-10-27T12:33:32.506Z,1054
2022-10-27T12:38:51.060Z,1041
2022-10-27T12:44:09.248Z,1037
2022-10-27T12:49:27.723Z,1020
2022-10-27T13:00:05.029Z,997
2022-10-27T13:05:07.936Z,978
2022-10-27T13:10:28.694Z,967
2022-10-27T13:15:54.290Z,977
2022-10-27T13:21:12.786Z,966
2022-10-27T13:26:31.336Z,950
2022-10-27T13:31:50.064Z,946
2022-10-27T13:37:08.274Z,1095
2022-10-27T13:42:26.581Z,1015
2022-10-27T13:47:45.377Z,955
2022-10-27T13:53:04.236Z,948
2022-10-27T13:58:22.488Z,957
2022-10-27T14:03:40.681Z,974
2022-10-27T14:08:58.874Z,974
2022-10-27T14:14:17.712Z,962
2022-10-27T14:19:35.978Z,962
2022-10-27T14:24:54.473Z,960
2022-10-27T14:30:12.437Z,953
2022-10-27T14:35:31.197Z,937
2022-10-27T14:40:49.668Z,941
2022-10-27T14:46:07.676Z,949
2022-10-27T14:51:25.946Z,1004
2022-10-27T14:56:44.718Z,1005
2022-10-27T15:01:47.620Z,1009
2022-10-27T15:07:06.145Z,1008
2022-10-27T15:12:24.637Z,1007
2022-10-27T15:17:42.951Z,1006
2022-10-27T15:23:01.448Z,1009
2022-10-27T15:28:20.216Z,1009
2022-10-27T15:33:38.736Z,1010
2022-10-27T15:38:57.024Z,1007
2022-10-27T15:44:15.796Z,1028
2022-10-27T15:49:34.591Z,1031
2022-10-27T15:54:52.493Z,1041
2022-10-27T16:00:10.711Z,1046
2022-10-27T16:05:28.947Z,961
2022-10-27T16:10:47.420Z,965
2022-10-27T16:16:06.217Z,972
2022-10-27T16:21:24.993Z,958
2022-10-27T16:26:44.029Z,940
2022-10-27T16:32:02.553Z,917
2022-10-27T16:37:20.802Z,920
2022-10-27T16:42:39.270Z,926
2022-10-27T16:47:57.508Z,939
2022-10-27T16:53:15.985Z,951
2022-10-27T16:58:34.741Z,972
2022-10-27T17:03:53.521Z,1010
2022-10-27T17:09:11.763Z,1006
2022-10-27T17:14:30.245Z,1037
2022-10-27T17:19:48.999Z,1045
2022-10-27T17:25:07.495Z,1051
2022-10-27T17:30:26.248Z,1019
2022-10-27T17:35:44.424Z,996
2022-10-27T17:41:02.652Z,718
2022-10-27T17:46:21.565Z,773
2022-10-27T17:51:40.268Z,870
2022-10-27T17:56:58.510Z,893
2022-10-27T18:07:35.446Z,889
2022-10-27T18:12:54.264Z,885
2022-10-27T18:18:13.320Z,906
2022-10-27T18:23:32.096Z,928
2022-10-27T18:28:50.873Z,942
2022-10-27T18:34:09.012Z,954
2022-10-27T18:39:27.739Z,990
2022-10-27T18:44:46.239Z,1004
2022-10-27T18:50:06.812Z,1011
2022-10-27T18:55:29.808Z,1017
2022-10-27T19:00:55.082Z,1037
2022-10-27T19:06:13.564Z,1068
2022-10-27T19:11:32.326Z,1125
2022-10-27T19:16:53.030Z,1148
2022-10-27T19:22:14.001Z,1154
2022-10-27T19:27:32.492Z,1174
2022-10-27T19:32:51.082Z,1069
2022-10-27T19:38:10.143Z,1165
2022-10-27T19:43:28.621Z,1306
2022-10-27T19:48:47.437Z,1321
2022-10-27T19:54:06.409Z,1357
2022-10-27T19:59:32.417Z,1377
2022-10-27T20:04:50.719Z,1393
2022-10-27T20:10:09.192Z,1426
2022-10-27T20:15:27.380Z,1458
2022-10-27T20:20:45.299Z,1476
2022-10-27T20:26:23.992Z,1475
2022-10-27T20:31:53.627Z,1466
2022-10-27T20:37:12.431Z,1470
2022-10-27T20:42:30.618Z,1503
2022-10-27T20:47:49.362Z,1522
2022-10-27T20:53:08.251Z,1549
2022-10-27T20:58:26.455Z,1552
2022-10-27T21:03:45.184Z,1586
2022-10-27T21:09:03.414Z,1603
2022-10-27T21:14:22.272Z,1614
2022-10-27T21:19:40.196Z,1619
2022-10-27T21:24:58.677Z,1629
2022-10-27T21:30:17.440Z,1628
2022-10-27T21:35:35.936Z,1607
2022-10-27T21:40:54.431Z,1603
2022-10-27T21:46:12.634Z,1603
2022-10-27T21:51:31.362Z,1601
2022-10-27T21:56:50.165Z,1597
2022-10-27T22:02:08.696Z,1606
2022-10-27T22:07:27.376Z,1614
2022-10-27T22:12:45.625Z,1614
2022-10-27T22:18:04.598Z,1617
2022-10-27T22:23:23.085Z,1619
2022-10-27T22:28:41.316Z,1613
2022-10-27T22:33:59.781Z,1625
2022-10-27T22:39:17.704Z,1630
2022-10-27T22:44:36.213Z,1628
2022-10-27T22:49:55.501Z,1638
2022-10-27T22:55:16.239Z,1647
2022-10-27T23:00:34.472Z,1659
2022-10-27T23:05:52.649Z,1656
2022-10-27T23:11:11.127Z,1648
2022-10-27T23:16:29.365Z,1670
2022-10-27T23:21:47.560Z,1712
2022-10-27T23:27:05.811Z,1727
2022-10-27T23:32:24.045Z,1734
2022-10-27T23:37:42.229Z,1736
2022-10-27T23:43:00.188Z,1742
2022-10-27T23:48:18.967Z,1741
2022-10-27T23:53:37.210Z,1741
2022-10-27T23:58:55.397Z,1736
